sensor_id;sensor_type;location;lat;lon;timestamp;temperature;humidity
324;DHT22;149;51.094;17.002;2022-12-18T00:00:22;-3.10;99.90
324;DHT22;149;51.094;17.002;2022-12-18T00:02:49;-3.20;99.90
324;DHT22;149;51.094;17.002;2022-12-18T00:05:19;-3.10;99.90
324;DHT22;149;51.094;17.002;2022-12-18T00:07:53;-3.20;99.90
324;DHT22;149;51.094;17.002;2022-12-18T00:10:20;-3.10;99.90
324;DHT22;149;51.094;17.002;2022-12-18T00:12:50;-2.90;99.90
324;DHT22;149;51.094;17.002;2022-12-18T00:15:20;-3.00;99.90
324;DHT22;149;51.094;17.002;2022-12-18T00:17:49;-2.90;99.90
324;DHT22;149;51.094;17.002;2022-12-18T00:20:16;-3.00;99.90
324;DHT22;149;51.094;17.002;2022-12-18T00:22:48;-3.00;99.90
324;DHT22;149;51.094;17.002;2022-12-18T00:25:18;-2.90;99.90
324;DHT22;149;51.094;17.002;2022-12-18T00:27:46;-2.80;99.90
324;DHT22;149;51.094;17.002;2022-12-18T00:30:14;-2.90;99.90
324;DHT22;149;51.094;17.002;2022-12-18T00:32:41;-3.00;99.90
324;DHT22;149;51.094;17.002;2022-12-18T00:35:11;-3.00;99.90
324;DHT22;149;51.094;17.002;2022-12-18T00:37:40;-3.00;99.90
324;DHT22;149;51.094;17.002;2022-12-18T00:40:08;-3.00;99.90
324;DHT22;149;51.094;17.002;2022-12-18T00:42:35;-2.90;99.90
324;DHT22;149;51.094;17.002;2022-12-18T00:45:27;-3.00;99.90
324;DHT22;149;51.094;17.002;2022-12-18T00:47:55;-2.90;99.90
324;DHT22;149;51.094;17.002;2022-12-18T00:50:25;-2.80;99.90
324;DHT22;149;51.094;17.002;2022-12-18T00:52:53;-2.70;99.90
324;DHT22;149;51.094;17.002;2022-12-18T00:55:23;-2.70;99.90
324;DHT22;149;51.094;17.002;2022-12-18T00:57:51;-2.60;99.90
324;DHT22;149;51.094;17.002;2022-12-18T01:00:19;-2.60;99.90
324;DHT22;149;51.094;17.002;2022-12-18T01:02:46;-2.50;99.90
324;DHT22;149;51.094;17.002;2022-12-18T01:05:16;-2.60;99.90
324;DHT22;149;51.094;17.002;2022-12-18T01:07:43;-2.60;99.90
324;DHT22;149;51.094;17.002;2022-12-18T01:10:12;-2.50;99.90
324;DHT22;149;51.094;17.002;2022-12-18T01:12:40;-2.50;99.90
324;DHT22;149;51.094;17.002;2022-12-18T01:15:10;-2.40;99.90
324;DHT22;149;51.094;17.002;2022-12-18T01:17:38;-2.60;99.90
324;DHT22;149;51.094;17.002;2022-12-18T01:20:07;-2.60;99.90
324;DHT22;149;51.094;17.002;2022-12-18T01:22:36;-2.60;99.90
324;DHT22;149;51.094;17.002;2022-12-18T01:25:05;-2.60;99.90
324;DHT22;149;51.094;17.002;2022-12-18T01:27:33;-2.40;99.90
324;DHT22;149;51.094;17.002;2022-12-18T01:30:02;-2.60;99.90
324;DHT22;149;51.094;17.002;2022-12-18T01:32:36;-2.60;99.90
324;DHT22;149;51.094;17.002;2022-12-18T01:35:08;-2.80;99.90
324;DHT22;149;51.094;17.002;2022-12-18T01:37:35;-2.80;99.90
324;DHT22;149;51.094;17.002;2022-12-18T01:43:41;-2.70;99.90
324;DHT22;149;51.094;17.002;2022-12-18T01:46:09;-2.90;99.90
324;DHT22;149;51.094;17.002;2022-12-18T01:48:40;-2.90;99.90
324;DHT22;149;51.094;17.002;2022-12-18T01:51:10;-2.70;99.90
324;DHT22;149;51.094;17.002;2022-12-18T01:53:40;-2.60;99.90
324;DHT22;149;51.094;17.002;2022-12-18T01:56:13;-2.40;99.90
324;DHT22;149;51.094;17.002;2022-12-18T01:58:56;-2.30;99.90
324;DHT22;149;51.094;17.002;2022-12-18T02:01:25;-2.30;99.90
324;DHT22;149;51.094;17.002;2022-12-18T02:03:53;-2.50;99.90
324;DHT22;149;51.094;17.002;2022-12-18T02:06:39;-2.50;99.90
324;DHT22;149;51.094;17.002;2022-12-18T02:09:23;-2.80;99.90
324;DHT22;149;51.094;17.002;2022-12-18T02:12:16;-2.90;99.90
324;DHT22;149;51.094;17.002;2022-12-18T02:18:19;-2.80;99.90
324;DHT22;149;51.094;17.002;2022-12-18T02:26:58;-2.80;99.90
324;DHT22;149;51.094;17.002;2022-12-18T02:29:31;-2.70;99.90
324;DHT22;149;51.094;17.002;2022-12-18T02:32:04;-2.70;99.90
324;DHT22;149;51.094;17.002;2022-12-18T02:34:39;-2.70;99.90
324;DHT22;149;51.094;17.002;2022-12-18T02:37:11;-2.60;99.90
324;DHT22;149;51.094;17.002;2022-12-18T02:39:44;-2.40;99.90
324;DHT22;149;51.094;17.002;2022-12-18T02:42:14;-2.30;99.90
324;DHT22;149;51.094;17.002;2022-12-18T02:44:49;-2.00;99.90
324;DHT22;149;51.094;17.002;2022-12-18T02:47:26;-1.90;99.90
324;DHT22;149;51.094;17.002;2022-12-18T02:52:38;-1.80;99.90
324;DHT22;149;51.094;17.002;2022-12-18T02:55:37;-1.90;99.90
324;DHT22;149;51.094;17.002;2022-12-18T03:01:03;-2.00;99.90
324;DHT22;149;51.094;17.002;2022-12-18T03:04:11;-2.00;99.90
324;DHT22;149;51.094;17.002;2022-12-18T03:06:48;-1.90;99.90
324;DHT22;149;51.094;17.002;2022-12-18T03:09:42;-1.70;99.90
324;DHT22;149;51.094;17.002;2022-12-18T03:12:18;-1.70;99.90
324;DHT22;149;51.094;17.002;2022-12-18T03:15:13;-1.70;99.90
324;DHT22;149;51.094;17.002;2022-12-18T03:17:50;-1.80;99.90
324;DHT22;149;51.094;17.002;2022-12-18T03:20:21;-1.90;99.90
324;DHT22;149;51.094;17.002;2022-12-18T03:22:53;-1.90;99.90
324;DHT22;149;51.094;17.002;2022-12-18T03:25:21;-1.80;99.90
324;DHT22;149;51.094;17.002;2022-12-18T03:27:58;-2.00;99.90
324;DHT22;149;51.094;17.002;2022-12-18T03:30:29;-1.90;99.90
324;DHT22;149;51.094;17.002;2022-12-18T03:33:02;-1.60;99.90
324;DHT22;149;51.094;17.002;2022-12-18T03:35:36;-1.80;99.90
324;DHT22;149;51.094;17.002;2022-12-18T03:38:05;-1.80;99.90
324;DHT22;149;51.094;17.002;2022-12-18T03:41:08;-1.90;99.90
324;DHT22;149;51.094;17.002;2022-12-18T03:43:50;-1.80;99.90
324;DHT22;149;51.094;17.002;2022-12-18T03:49:19;-1.70;99.90
324;DHT22;149;51.094;17.002;2022-12-18T03:51:54;-1.80;99.90
324;DHT22;149;51.094;17.002;2022-12-18T03:54:25;-2.00;99.90
324;DHT22;149;51.094;17.002;2022-12-18T03:57:07;-2.20;99.90
324;DHT22;149;51.094;17.002;2022-12-18T03:59:37;-2.00;99.90
324;DHT22;149;51.094;17.002;2022-12-18T04:02:06;-1.90;99.90
324;DHT22;149;51.094;17.002;2022-12-18T04:04:39;-1.60;99.90
324;DHT22;149;51.094;17.002;2022-12-18T04:07:07;-1.80;99.90
324;DHT22;149;51.094;17.002;2022-12-18T04:09:36;-1.70;99.90
324;DHT22;149;51.094;17.002;2022-12-18T04:12:08;-1.70;99.90
324;DHT22;149;51.094;17.002;2022-12-18T04:14:35;-1.90;99.90
324;DHT22;149;51.094;17.002;2022-12-18T04:17:03;-2.00;99.90
324;DHT22;149;51.094;17.002;2022-12-18T04:19:30;-2.00;99.90
324;DHT22;149;51.094;17.002;2022-12-18T04:21:58;-2.10;99.90
324;DHT22;149;51.094;17.002;2022-12-18T04:24:25;-2.30;99.90
324;DHT22;149;51.094;17.002;2022-12-18T04:26:54;-2.40;99.90
324;DHT22;149;51.094;17.002;2022-12-18T04:29:21;-2.50;99.90
324;DHT22;149;51.094;17.002;2022-12-18T04:31:47;-2.40;99.90
324;DHT22;149;51.094;17.002;2022-12-18T04:34:14;-2.20;99.90
324;DHT22;149;51.094;17.002;2022-12-18T04:36:43;-2.00;99.90
324;DHT22;149;51.094;17.002;2022-12-18T04:39:11;-1.70;99.90
324;DHT22;149;51.094;17.002;2022-12-18T04:41:40;-1.60;99.90
324;DHT22;149;51.094;17.002;2022-12-18T04:44:08;-1.60;99.90
324;DHT22;149;51.094;17.002;2022-12-18T04:46:35;-1.80;99.90
324;DHT22;149;51.094;17.002;2022-12-18T04:49:03;-1.60;99.90
324;DHT22;149;51.094;17.002;2022-12-18T04:51:30;-2.00;99.90
324;DHT22;149;51.094;17.002;2022-12-18T04:53:57;-2.30;99.90
324;DHT22;149;51.094;17.002;2022-12-18T04:56:24;-2.30;99.90
324;DHT22;149;51.094;17.002;2022-12-18T04:58:53;-2.10;99.90
324;DHT22;149;51.094;17.002;2022-12-18T05:01:22;-2.30;99.90
324;DHT22;149;51.094;17.002;2022-12-18T05:03:56;-2.70;99.90
324;DHT22;149;51.094;17.002;2022-12-18T05:06:23;-2.70;99.90
324;DHT22;149;51.094;17.002;2022-12-18T05:08:50;-2.80;99.90
324;DHT22;149;51.094;17.002;2022-12-18T05:11:18;-2.80;99.90
324;DHT22;149;51.094;17.002;2022-12-18T05:13:47;-2.60;99.90
324;DHT22;149;51.094;17.002;2022-12-18T05:16:15;-2.60;99.90
324;DHT22;149;51.094;17.002;2022-12-18T05:18:45;-2.70;99.90
324;DHT22;149;51.094;17.002;2022-12-18T05:21:12;-2.60;99.90
324;DHT22;149;51.094;17.002;2022-12-18T05:23:39;-2.50;99.90
324;DHT22;149;51.094;17.002;2022-12-18T05:26:07;-2.40;99.90
324;DHT22;149;51.094;17.002;2022-12-18T05:28:35;-2.20;99.90
324;DHT22;149;51.094;17.002;2022-12-18T05:31:04;-2.50;99.90
324;DHT22;149;51.094;17.002;2022-12-18T05:33:33;-2.70;99.90
324;DHT22;149;51.094;17.002;2022-12-18T05:36:02;-2.60;99.90
324;DHT22;149;51.094;17.002;2022-12-18T05:38:32;-2.60;99.90
324;DHT22;149;51.094;17.002;2022-12-18T05:40:59;-2.40;99.90
324;DHT22;149;51.094;17.002;2022-12-18T05:43:28;-2.50;99.90
324;DHT22;149;51.094;17.002;2022-12-18T05:45:56;-2.80;99.90
324;DHT22;149;51.094;17.002;2022-12-18T05:52:12;-2.70;99.90
324;DHT22;149;51.094;17.002;2022-12-18T05:54:56;-3.00;99.90
324;DHT22;149;51.094;17.002;2022-12-18T05:57:25;-2.70;99.90
324;DHT22;149;51.094;17.002;2022-12-18T05:59:52;-3.00;99.90
324;DHT22;149;51.094;17.002;2022-12-18T06:02:19;-2.90;99.90
324;DHT22;149;51.094;17.002;2022-12-18T06:04:49;-2.70;99.90
324;DHT22;149;51.094;17.002;2022-12-18T06:07:19;-2.80;99.90
324;DHT22;149;51.094;17.002;2022-12-18T06:09:46;-2.90;99.90
324;DHT22;149;51.094;17.002;2022-12-18T06:12:14;-3.20;99.90
324;DHT22;149;51.094;17.002;2022-12-18T06:14:44;-3.10;99.90
324;DHT22;149;51.094;17.002;2022-12-18T06:17:12;-3.10;99.90
324;DHT22;149;51.094;17.002;2022-12-18T06:19:39;-3.00;99.90
324;DHT22;149;51.094;17.002;2022-12-18T06:22:07;-3.00;99.90
324;DHT22;149;51.094;17.002;2022-12-18T06:24:36;-3.20;99.90
324;DHT22;149;51.094;17.002;2022-12-18T06:27:03;-3.20;99.90
324;DHT22;149;51.094;17.002;2022-12-18T06:29:30;-3.30;99.90
324;DHT22;149;51.094;17.002;2022-12-18T06:31:57;-3.10;99.90
324;DHT22;149;51.094;17.002;2022-12-18T06:34:24;-2.70;99.90
324;DHT22;149;51.094;17.002;2022-12-18T06:36:52;-2.90;99.90
324;DHT22;149;51.094;17.002;2022-12-18T06:39:19;-2.80;99.90
324;DHT22;149;51.094;17.002;2022-12-18T06:41:46;-2.90;99.90
324;DHT22;149;51.094;17.002;2022-12-18T06:44:15;-3.00;99.90
324;DHT22;149;51.094;17.002;2022-12-18T06:46:51;-3.00;99.90
324;DHT22;149;51.094;17.002;2022-12-18T06:49:19;-3.00;99.90
324;DHT22;149;51.094;17.002;2022-12-18T06:51:55;-3.30;99.90
324;DHT22;149;51.094;17.002;2022-12-18T06:54:26;-3.30;99.90
324;DHT22;149;51.094;17.002;2022-12-18T06:56:56;-3.20;99.90
324;DHT22;149;51.094;17.002;2022-12-18T06:59:23;-3.00;99.90
324;DHT22;149;51.094;17.002;2022-12-18T07:01:53;-3.10;99.90
324;DHT22;149;51.094;17.002;2022-12-18T07:04:22;-3.00;99.90
324;DHT22;149;51.094;17.002;2022-12-18T07:06:49;-3.10;99.90
324;DHT22;149;51.094;17.002;2022-12-18T07:09:19;-2.80;99.90
324;DHT22;149;51.094;17.002;2022-12-18T07:11:47;-2.70;99.90
324;DHT22;149;51.094;17.002;2022-12-18T07:14:17;-2.70;99.90
324;DHT22;149;51.094;17.002;2022-12-18T07:16:47;-2.40;99.90
324;DHT22;149;51.094;17.002;2022-12-18T07:19:15;-2.30;99.90
324;DHT22;149;51.094;17.002;2022-12-18T07:21:44;-2.70;99.90
324;DHT22;149;51.094;17.002;2022-12-18T07:24:14;-2.90;99.90
324;DHT22;149;51.094;17.002;2022-12-18T07:26:46;-2.90;99.90
324;DHT22;149;51.094;17.002;2022-12-18T07:29:15;-3.00;99.90
324;DHT22;149;51.094;17.002;2022-12-18T07:31:47;-3.10;99.90
324;DHT22;149;51.094;17.002;2022-12-18T07:34:17;-3.30;99.90
324;DHT22;149;51.094;17.002;2022-12-18T07:36:45;-3.40;99.90
324;DHT22;149;51.094;17.002;2022-12-18T07:39:13;-3.30;99.90
324;DHT22;149;51.094;17.002;2022-12-18T07:41:40;-3.10;99.90
324;DHT22;149;51.094;17.002;2022-12-18T07:44:13;-3.10;99.90
324;DHT22;149;51.094;17.002;2022-12-18T07:46:41;-2.90;99.90
324;DHT22;149;51.094;17.002;2022-12-18T07:49:08;-3.00;99.90
324;DHT22;149;51.094;17.002;2022-12-18T07:51:35;-3.00;99.90
324;DHT22;149;51.094;17.002;2022-12-18T07:54:04;-3.20;99.90
324;DHT22;149;51.094;17.002;2022-12-18T07:56:32;-3.20;99.90
324;DHT22;149;51.094;17.002;2022-12-18T07:58:59;-3.30;99.90
324;DHT22;149;51.094;17.002;2022-12-18T08:01:26;-3.20;99.90
324;DHT22;149;51.094;17.002;2022-12-18T08:03:54;-3.20;99.90
324;DHT22;149;51.094;17.002;2022-12-18T08:06:23;-3.10;99.90
324;DHT22;149;51.094;17.002;2022-12-18T08:08:55;-3.00;99.90
324;DHT22;149;51.094;17.002;2022-12-18T08:11:26;-3.10;99.90
324;DHT22;149;51.094;17.002;2022-12-18T08:13:55;-3.30;99.90
324;DHT22;149;51.094;17.002;2022-12-18T08:16:26;-3.30;99.90
324;DHT22;149;51.094;17.002;2022-12-18T08:18:56;-3.30;99.90
324;DHT22;149;51.094;17.002;2022-12-18T08:21:28;-3.20;99.90
324;DHT22;149;51.094;17.002;2022-12-18T08:23:58;-3.20;99.90
324;DHT22;149;51.094;17.002;2022-12-18T08:26:27;-3.10;99.90
324;DHT22;149;51.094;17.002;2022-12-18T08:28:56;-2.90;99.90
324;DHT22;149;51.094;17.002;2022-12-18T08:31:24;-2.70;99.90
324;DHT22;149;51.094;17.002;2022-12-18T08:33:53;-2.30;99.90
324;DHT22;149;51.094;17.002;2022-12-18T08:36:21;-2.40;99.90
324;DHT22;149;51.094;17.002;2022-12-18T08:38:50;-2.40;99.90
324;DHT22;149;51.094;17.002;2022-12-18T08:41:18;-2.50;99.90
324;DHT22;149;51.094;17.002;2022-12-18T08:43:45;-2.40;99.90
324;DHT22;149;51.094;17.002;2022-12-18T08:46:39;-2.50;99.90
324;DHT22;149;51.094;17.002;2022-12-18T08:49:07;-2.60;99.90
324;DHT22;149;51.094;17.002;2022-12-18T08:51:34;-2.70;99.90
324;DHT22;149;51.094;17.002;2022-12-18T08:54:09;-2.70;99.90
324;DHT22;149;51.094;17.002;2022-12-18T08:56:38;-2.60;99.90
324;DHT22;149;51.094;17.002;2022-12-18T08:59:09;-2.50;99.90
324;DHT22;149;51.094;17.002;2022-12-18T09:01:46;-2.40;99.90
324;DHT22;149;51.094;17.002;2022-12-18T09:04:15;-2.60;99.90
324;DHT22;149;51.094;17.002;2022-12-18T09:06:47;-2.70;99.90
324;DHT22;149;51.094;17.002;2022-12-18T09:09:14;-2.70;99.90
324;DHT22;149;51.094;17.002;2022-12-18T09:11:43;-2.80;99.90
324;DHT22;149;51.094;17.002;2022-12-18T09:14:10;-2.80;99.90
324;DHT22;149;51.094;17.002;2022-12-18T09:16:39;-2.80;99.90
324;DHT22;149;51.094;17.002;2022-12-18T09:19:06;-2.60;99.90
324;DHT22;149;51.094;17.002;2022-12-18T09:21:38;-2.40;99.90
324;DHT22;149;51.094;17.002;2022-12-18T09:24:15;-2.60;99.90
324;DHT22;149;51.094;17.002;2022-12-18T09:26:43;-2.50;99.90
324;DHT22;149;51.094;17.002;2022-12-18T09:29:14;-2.30;99.90
324;DHT22;149;51.094;17.002;2022-12-18T09:31:42;-2.20;99.90
324;DHT22;149;51.094;17.002;2022-12-18T09:34:09;-2.00;99.90
324;DHT22;149;51.094;17.002;2022-12-18T09:36:35;-2.10;99.90
324;DHT22;149;51.094;17.002;2022-12-18T09:39:03;-2.20;99.90
324;DHT22;149;51.094;17.002;2022-12-18T09:44:11;-2.50;99.90
324;DHT22;149;51.094;17.002;2022-12-18T09:46:47;-2.60;99.90
324;DHT22;149;51.094;17.002;2022-12-18T09:49:22;-2.50;99.90
324;DHT22;149;51.094;17.002;2022-12-18T09:52:00;-2.60;99.90
324;DHT22;149;51.094;17.002;2022-12-18T09:54:40;-2.70;99.90
324;DHT22;149;51.094;17.002;2022-12-18T09:57:21;-2.70;99.90
324;DHT22;149;51.094;17.002;2022-12-18T10:00:16;-2.90;99.90
324;DHT22;149;51.094;17.002;2022-12-18T10:02:45;-2.90;99.90
324;DHT22;149;51.094;17.002;2022-12-18T10:05:34;-2.60;99.90
324;DHT22;149;51.094;17.002;2022-12-18T10:08:11;-2.50;99.90
324;DHT22;149;51.094;17.002;2022-12-18T10:11:03;-2.50;99.90
324;DHT22;149;51.094;17.002;2022-12-18T10:13:46;-2.30;99.90
324;DHT22;149;51.094;17.002;2022-12-18T10:16:19;-2.40;99.90
324;DHT22;149;51.094;17.002;2022-12-18T10:19:14;-2.40;99.90
324;DHT22;149;51.094;17.002;2022-12-18T10:22:21;-2.40;99.90
324;DHT22;149;51.094;17.002;2022-12-18T10:27:45;-2.20;99.90
324;DHT22;149;51.094;17.002;2022-12-18T10:30:15;-2.30;99.90
324;DHT22;149;51.094;17.002;2022-12-18T10:32:43;-2.60;99.90
324;DHT22;149;51.094;17.002;2022-12-18T10:35:30;-2.60;99.90
324;DHT22;149;51.094;17.002;2022-12-18T10:40:49;-2.80;99.90
324;DHT22;149;51.094;17.002;2022-12-18T10:43:27;-2.60;99.90
324;DHT22;149;51.094;17.002;2022-12-18T10:46:16;-2.60;99.90
324;DHT22;149;51.094;17.002;2022-12-18T10:48:51;-2.50;99.90
324;DHT22;149;51.094;17.002;2022-12-18T10:51:30;-2.60;99.90
324;DHT22;149;51.094;17.002;2022-12-18T10:54:02;-2.60;99.90
324;DHT22;149;51.094;17.002;2022-12-18T10:56:34;-2.70;99.90
324;DHT22;149;51.094;17.002;2022-12-18T10:59:04;-2.70;99.90
324;DHT22;149;51.094;17.002;2022-12-18T11:01:55;-2.70;99.90
324;DHT22;149;51.094;17.002;2022-12-18T11:07:02;-2.80;99.90
324;DHT22;149;51.094;17.002;2022-12-18T11:09:34;-2.70;99.90
324;DHT22;149;51.094;17.002;2022-12-18T11:12:08;-2.60;99.90
324;DHT22;149;51.094;17.002;2022-12-18T11:14:42;-2.50;99.90
324;DHT22;149;51.094;17.002;2022-12-18T11:20:00;-2.50;99.90
324;DHT22;149;51.094;17.002;2022-12-18T11:22:33;-2.40;99.90
324;DHT22;149;51.094;17.002;2022-12-18T11:31:31;-2.60;99.90
324;DHT22;149;51.094;17.002;2022-12-18T11:34:28;-2.90;99.90
324;DHT22;149;51.094;17.002;2022-12-18T11:36:59;-2.70;99.90
324;DHT22;149;51.094;17.002;2022-12-18T11:39:39;-2.60;99.90
324;DHT22;149;51.094;17.002;2022-12-18T11:50:24;-2.50;99.90
324;DHT22;149;51.094;17.002;2022-12-18T11:52:55;-2.30;99.90
324;DHT22;149;51.094;17.002;2022-12-18T11:55:46;-2.50;99.90
324;DHT22;149;51.094;17.002;2022-12-18T11:58:27;-2.50;99.90
324;DHT22;149;51.094;17.002;2022-12-18T12:01:54;-2.40;99.90
324;DHT22;149;51.094;17.002;2022-12-18T12:09:25;-2.40;99.90
324;DHT22;149;51.094;17.002;2022-12-18T12:11:58;-2.40;99.90
324;DHT22;149;51.094;17.002;2022-12-18T12:14:34;-2.40;99.90
324;DHT22;149;51.094;17.002;2022-12-18T12:30:36;-2.90;99.90
324;DHT22;149;51.094;17.002;2022-12-18T12:38:40;-2.80;99.90
324;DHT22;149;51.094;17.002;2022-12-18T12:41:20;-2.60;99.90
324;DHT22;149;51.094;17.002;2022-12-18T12:44:12;-2.80;99.90
324;DHT22;149;51.094;17.002;2022-12-18T12:46:40;-2.90;99.90
324;DHT22;149;51.094;17.002;2022-12-18T12:49:19;-2.90;99.90
324;DHT22;149;51.094;17.002;2022-12-18T12:52:12;-2.70;99.90
324;DHT22;149;51.094;17.002;2022-12-18T12:54:44;-2.60;99.90
324;DHT22;149;51.094;17.002;2022-12-18T12:57:54;-2.60;99.90
324;DHT22;149;51.094;17.002;2022-12-18T13:00:44;-3.00;99.90
324;DHT22;149;51.094;17.002;2022-12-18T13:06:04;-3.10;99.90
324;DHT22;149;51.094;17.002;2022-12-18T13:08:55;-3.10;99.90
324;DHT22;149;51.094;17.002;2022-12-18T13:11:57;-3.10;99.90
324;DHT22;149;51.094;17.002;2022-12-18T13:14:47;-3.20;99.90
324;DHT22;149;51.094;17.002;2022-12-18T13:20:26;-3.00;99.90
324;DHT22;149;51.094;17.002;2022-12-18T13:22:47;-2.90;99.90
324;DHT22;149;51.094;17.002;2022-12-18T13:25:35;-3.20;99.90
324;DHT22;149;51.094;17.002;2022-12-18T13:28:18;-3.20;99.90
324;DHT22;149;51.094;17.002;2022-12-18T13:30:56;-3.40;99.90
324;DHT22;149;51.094;17.002;2022-12-18T13:35:58;-3.40;99.90
324;DHT22;149;51.094;17.002;2022-12-18T13:38:34;-3.40;99.90
324;DHT22;149;51.094;17.002;2022-12-18T13:41:25;-3.40;99.90
324;DHT22;149;51.094;17.002;2022-12-18T13:43:54;-3.30;99.90
324;DHT22;149;51.094;17.002;2022-12-18T13:49:02;-3.20;99.90
324;DHT22;149;51.094;17.002;2022-12-18T13:51:32;-3.40;99.90
324;DHT22;149;51.094;17.002;2022-12-18T13:54:18;-3.30;99.90
324;DHT22;149;51.094;17.002;2022-12-18T13:56:48;-3.40;99.90
324;DHT22;149;51.094;17.002;2022-12-18T13:59:24;-3.50;99.90
324;DHT22;149;51.094;17.002;2022-12-18T14:01:56;-3.40;99.90
324;DHT22;149;51.094;17.002;2022-12-18T14:04:32;-3.50;99.90
324;DHT22;149;51.094;17.002;2022-12-18T14:07:07;-3.60;99.90
324;DHT22;149;51.094;17.002;2022-12-18T14:09:44;-3.60;99.90
324;DHT22;149;51.094;17.002;2022-12-18T14:12:35;-3.60;99.90
324;DHT22;149;51.094;17.002;2022-12-18T14:15:41;-3.70;99.90
324;DHT22;149;51.094;17.002;2022-12-18T14:18:22;-3.80;99.90
324;DHT22;149;51.094;17.002;2022-12-18T14:20:52;-3.90;99.90
324;DHT22;149;51.094;17.002;2022-12-18T14:23:30;-3.80;99.90
324;DHT22;149;51.094;17.002;2022-12-18T14:25:57;-3.90;99.90
324;DHT22;149;51.094;17.002;2022-12-18T14:28:31;-3.90;99.90
324;DHT22;149;51.094;17.002;2022-12-18T14:30:58;-3.80;99.90
324;DHT22;149;51.094;17.002;2022-12-18T14:33:27;-3.80;99.90
324;DHT22;149;51.094;17.002;2022-12-18T14:35:59;-3.90;99.90
324;DHT22;149;51.094;17.002;2022-12-18T14:38:32;-3.90;99.90
324;DHT22;149;51.094;17.002;2022-12-18T14:41:01;-4.00;99.90
324;DHT22;149;51.094;17.002;2022-12-18T14:43:32;-4.10;99.90
324;DHT22;149;51.094;17.002;2022-12-18T14:46:01;-4.10;99.90
324;DHT22;149;51.094;17.002;2022-12-18T14:51:17;-4.00;99.90
324;DHT22;149;51.094;17.002;2022-12-18T14:53:56;-4.10;99.90
324;DHT22;149;51.094;17.002;2022-12-18T14:56:41;-4.10;99.90
324;DHT22;149;51.094;17.002;2022-12-18T14:59:23;-4.10;99.90
324;DHT22;149;51.094;17.002;2022-12-18T15:04:37;-4.20;99.90
324;DHT22;149;51.094;17.002;2022-12-18T15:10:22;-4.20;99.90
324;DHT22;149;51.094;17.002;2022-12-18T15:18:01;-4.20;99.90
324;DHT22;149;51.094;17.002;2022-12-18T15:20:32;-4.20;99.90
324;DHT22;149;51.094;17.002;2022-12-18T15:22:59;-4.10;99.90
324;DHT22;149;51.094;17.002;2022-12-18T15:25:34;-4.10;99.90
324;DHT22;149;51.094;17.002;2022-12-18T15:28:04;-4.20;99.90
324;DHT22;149;51.094;17.002;2022-12-18T15:30:58;-4.10;99.90
324;DHT22;149;51.094;17.002;2022-12-18T15:33:30;-4.10;99.90
324;DHT22;149;51.094;17.002;2022-12-18T15:35:59;-4.30;99.90
324;DHT22;149;51.094;17.002;2022-12-18T15:38:26;-4.30;99.90
324;DHT22;149;51.094;17.002;2022-12-18T15:40:54;-4.30;99.90
324;DHT22;149;51.094;17.002;2022-12-18T15:43:24;-4.40;99.90
324;DHT22;149;51.094;17.002;2022-12-18T15:46:02;-4.50;99.90
324;DHT22;149;51.094;17.002;2022-12-18T15:48:33;-4.60;99.90
324;DHT22;149;51.094;17.002;2022-12-18T15:51:00;-4.60;99.90
324;DHT22;149;51.094;17.002;2022-12-18T15:53:31;-4.60;99.90
324;DHT22;149;51.094;17.002;2022-12-18T15:55:59;-4.60;99.90
324;DHT22;149;51.094;17.002;2022-12-18T15:58:44;-4.60;99.90
324;DHT22;149;51.094;17.002;2022-12-18T16:01:11;-4.50;99.90
324;DHT22;149;51.094;17.002;2022-12-18T16:03:38;-4.60;99.90
324;DHT22;149;51.094;17.002;2022-12-18T16:06:06;-4.70;99.90
324;DHT22;149;51.094;17.002;2022-12-18T16:08:33;-4.70;99.90
324;DHT22;149;51.094;17.002;2022-12-18T16:11:01;-4.80;99.90
324;DHT22;149;51.094;17.002;2022-12-18T16:13:28;-4.80;99.90
324;DHT22;149;51.094;17.002;2022-12-18T16:15:55;-4.80;99.90
324;DHT22;149;51.094;17.002;2022-12-18T16:18:21;-4.80;99.90
324;DHT22;149;51.094;17.002;2022-12-18T16:20:48;-4.80;99.90
324;DHT22;149;51.094;17.002;2022-12-18T16:23:15;-4.80;99.90
324;DHT22;149;51.094;17.002;2022-12-18T16:25:43;-4.80;99.90
324;DHT22;149;51.094;17.002;2022-12-18T16:28:09;-4.80;99.90
324;DHT22;149;51.094;17.002;2022-12-18T16:30:36;-4.90;99.90
324;DHT22;149;51.094;17.002;2022-12-18T16:33:04;-4.90;99.90
324;DHT22;149;51.094;17.002;2022-12-18T16:35:33;-4.90;99.90
324;DHT22;149;51.094;17.002;2022-12-18T16:38:00;-4.90;99.90
324;DHT22;149;51.094;17.002;2022-12-18T16:40:27;-5.10;99.90
324;DHT22;149;51.094;17.002;2022-12-18T16:42:54;-5.10;99.90
324;DHT22;149;51.094;17.002;2022-12-18T16:45:21;-5.30;99.90
324;DHT22;149;51.094;17.002;2022-12-18T16:47:51;-5.40;99.90
324;DHT22;149;51.094;17.002;2022-12-18T16:50:19;-5.50;99.90
324;DHT22;149;51.094;17.002;2022-12-18T16:52:45;-5.50;99.90
324;DHT22;149;51.094;17.002;2022-12-18T16:55:12;-5.60;99.90
324;DHT22;149;51.094;17.002;2022-12-18T16:57:39;-5.70;99.90
324;DHT22;149;51.094;17.002;2022-12-18T17:00:07;-5.70;99.90
324;DHT22;149;51.094;17.002;2022-12-18T17:02:34;-5.80;99.90
324;DHT22;149;51.094;17.002;2022-12-18T17:05:04;-5.80;99.90
324;DHT22;149;51.094;17.002;2022-12-18T17:07:31;-5.90;99.90
324;DHT22;149;51.094;17.002;2022-12-18T17:10:00;-5.90;99.90
324;DHT22;149;51.094;17.002;2022-12-18T17:12:27;-5.90;99.90
324;DHT22;149;51.094;17.002;2022-12-18T17:14:54;-5.90;99.90
324;DHT22;149;51.094;17.002;2022-12-18T17:17:21;-6.00;99.90
324;DHT22;149;51.094;17.002;2022-12-18T17:19:50;-6.00;99.90
324;DHT22;149;51.094;17.002;2022-12-18T17:22:17;-6.10;99.90
324;DHT22;149;51.094;17.002;2022-12-18T17:24:45;-6.10;99.90
324;DHT22;149;51.094;17.002;2022-12-18T17:27:12;-6.10;99.90
324;DHT22;149;51.094;17.002;2022-12-18T17:29:39;-6.10;99.90
324;DHT22;149;51.094;17.002;2022-12-18T17:32:13;-6.10;99.90
324;DHT22;149;51.094;17.002;2022-12-18T17:34:40;-6.20;99.90
324;DHT22;149;51.094;17.002;2022-12-18T17:37:07;-6.20;99.90
324;DHT22;149;51.094;17.002;2022-12-18T17:39:34;-6.20;99.90
324;DHT22;149;51.094;17.002;2022-12-18T17:42:01;-6.10;99.90
324;DHT22;149;51.094;17.002;2022-12-18T17:44:28;-6.10;99.90
324;DHT22;149;51.094;17.002;2022-12-18T17:46:55;-6.20;99.90
324;DHT22;149;51.094;17.002;2022-12-18T17:49:22;-6.20;99.90
324;DHT22;149;51.094;17.002;2022-12-18T17:51:49;-6.20;99.90
324;DHT22;149;51.094;17.002;2022-12-18T17:54:17;-6.20;99.90
324;DHT22;149;51.094;17.002;2022-12-18T17:56:44;-6.20;99.90
324;DHT22;149;51.094;17.002;2022-12-18T17:59:12;-6.20;99.90
324;DHT22;149;51.094;17.002;2022-12-18T18:01:39;-6.20;99.90
324;DHT22;149;51.094;17.002;2022-12-18T18:04:11;-6.30;99.90
324;DHT22;149;51.094;17.002;2022-12-18T18:06:38;-6.40;99.90
324;DHT22;149;51.094;17.002;2022-12-18T18:09:06;-6.30;99.90
324;DHT22;149;51.094;17.002;2022-12-18T18:11:45;-6.40;99.90
324;DHT22;149;51.094;17.002;2022-12-18T18:14:31;-6.30;99.90
324;DHT22;149;51.094;17.002;2022-12-18T18:16:59;-6.40;99.90
324;DHT22;149;51.094;17.002;2022-12-18T18:19:30;-6.40;99.90
324;DHT22;149;51.094;17.002;2022-12-18T18:21:58;-6.30;99.90
324;DHT22;149;51.094;17.002;2022-12-18T18:24:24;-6.30;99.90
324;DHT22;149;51.094;17.002;2022-12-18T18:26:55;-6.40;99.90
324;DHT22;149;51.094;17.002;2022-12-18T18:29:25;-6.40;99.90
324;DHT22;149;51.094;17.002;2022-12-18T18:31:55;-6.50;99.90